WetterOnline ( https://www.wetteronline.de )

Wetter aktuell Niedernhall

Aktuelles Wetter: Öhringen (277m)

6-stündlich | Neueste Meldungen
Ortszeit Temperatur Wetter
Di, 17.05. 2:00 15.3° C fast wolkenlos
Mo, 16.05. 20:00 19.8° C bewölkt
Mo, 16.05. 14:00 23.3° C bewölkt
Mo, 16.05. 8:00 16.9° C bedeckt
Mo, 16.05. 2:00 15.9° C wolkenlos
So, 15.05. 20:00 24.2° C leicht bewölkt
So, 15.05. 14:00 26.2° C fast wolkenlos
So, 15.05. 8:00 14.8° C leicht bewölkt
Ortszeit Temperatur Wetter
Di, 17.05. 2:30 14.7° C leicht bewölkt
Di, 17.05. 2:20 14.7° C leicht bewölkt
Di, 17.05. 2:10 15.2° C leicht bewölkt
Di, 17.05. 2:00 15.3° C fast wolkenlos
Di, 17.05. 1:50 15.3° C fast wolkenlos
Di, 17.05. 1:40 15.4° C wolkenlos
Di, 17.05. 1:30 15.6° C fast wolkenlos
Di, 17.05. 1:00 15.8° C wolkig
Di, 17.05. 0:30 16.5° C bedeckt
Di, 17.05. 0:00 16.8° C bedeckt
Mo, 16.05. 23:30 17.3° C wolkig
Ortszeit Relative Feuchte Sichtweite
Di, 17.05. 2:00 82% 45 km
Mo, 16.05. 20:00 67% 50 km
Mo, 16.05. 14:00 50% 25 km
Mo, 16.05. 8:00 65% 50 km
Mo, 16.05. 2:00 59% 55 km
So, 15.05. 20:00 35% 55 km
So, 15.05. 14:00 30% 55 km
So, 15.05. 8:00 62% 40 km
Ortszeit Relative Feuchte Sichtweite
Di, 17.05. 2:30 84% 40 km
Di, 17.05. 2:20 84% -
Di, 17.05. 2:10 83% -
Di, 17.05. 2:00 82% 45 km
Di, 17.05. 1:50 82% -
Di, 17.05. 1:40 82% -
Di, 17.05. 1:30 81% 40 km
Di, 17.05. 1:00 80% 40 km
Di, 17.05. 0:30 77% 45 km
Di, 17.05. 0:00 75% 50 km
Mo, 16.05. 23:30 73% 50 km
Ortszeit Niederschlagsmenge Niederschlagsart
Di, 17.05. 2:00 0.0 l/m2 in 6 Std. -
Mo, 16.05. 20:00 0.1 l/m2 in 12 Std. Regen
Mo, 16.05. 14:00 0.1 l/m2 in 6 Std. Regen
Mo, 16.05. 8:00 0.1 l/m2 in 12 Std. Regen
Mo, 16.05. 2:00 0.0 l/m2 in 6 Std. -
So, 15.05. 20:00 0.0 l/m2 in 12 Std. -
So, 15.05. 14:00 0.0 l/m2 in 6 Std. -
So, 15.05. 8:00 0.0 l/m2 in 12 Std. -
Ortszeit Niederschlagsmenge Niederschlagsart
Di, 17.05. 2:30 0.0 l/m2 in 1 Std. -
Di, 17.05. 2:20 keine Meldung -
Di, 17.05. 2:10 keine Meldung -
Di, 17.05. 2:00 0.0 l/m2 in 1 Std. -
Di, 17.05. 1:50 keine Meldung -
Di, 17.05. 1:40 keine Meldung -
Di, 17.05. 1:30 0.0 l/m2 in 1 Std. -
Di, 17.05. 1:00 0.0 l/m2 in 1 Std. -
Di, 17.05. 0:30 0.0 l/m2 in 1 Std. -
Di, 17.05. 0:00 0.0 l/m2 in 1 Std. -
Mo, 16.05. 23:30 0.0 l/m2 in 1 Std. -
Ortszeit Stärke Spitze Richtung
km/h Bft. km/h Grad Sektor
Di, 17.05. 2:00 2 1 31 240° SW
Mo, 16.05. 20:00 14 3 61 260° W
Mo, 16.05. 14:00 30 5 50 250° W
Mo, 16.05. 8:00 4 1 14 130° SO
Mo, 16.05. 2:00 7 2 18 50° NO
So, 15.05. 20:00 11 2 24 70° O
So, 15.05. 14:00 9 2 22 70° O
So, 15.05. 8:00 6 1 13 60° NO
Ortszeit Stärke Spitze Richtung
km/h Bft. km/h Grad Sektor
Di, 17.05. 2:30 6 1 6 150° SO
Di, 17.05. 2:20 6 1 - 150° SO
Di, 17.05. 2:10 4 1 - 180° S
Di, 17.05. 2:00 2 1 6 240° SW
Di, 17.05. 1:50 2 1 - 240° SW
Di, 17.05. 1:40 2 1 - 240° SW
Di, 17.05. 1:30 4 1 4 120° SO
Di, 17.05. 1:00 4 1 7 260° W
Di, 17.05. 0:30 4 1 7 230° SW
Di, 17.05. 0:00 6 1 15 260° W
Mo, 16.05. 23:30 6 1 15 260° W
Ortszeit Untergrenze Bedeckung Gattung
total tief tief mittel hoch
Di, 17.05. 2:00 1020 m 1/8 1/8 - - -
Mo, 16.05. 20:00 1800 m 8/8 7/8 - - -
Mo, 16.05. 14:00 1350 m 7/8 7/8 - - -
Mo, 16.05. 8:00 3000 m 8/8 8/8 - - -
Mo, 16.05. 2:00 - 0/8 0/8 - - -
So, 15.05. 20:00 9000 m 7/8 0/8 - - -
So, 15.05. 14:00 6900 m 1/8 1/8 - - -
So, 15.05. 8:00 10500 m 6/8 0/8 - - -
Ortszeit Bedeckungsgrad in Achtel und Wolkenuntergrenze
Di, 17.05. 2:30 2(1050m)
Di, 17.05. 2:20 2(1050m)
Di, 17.05. 2:10 3
Di, 17.05. 2:00 1(1020m)
Di, 17.05. 1:50 1(1020m)
Di, 17.05. 1:40 keine Wolken
Di, 17.05. 1:30 1(8700m)
Di, 17.05. 1:00 1(4500m) 7(8400m) 7(9000m)
Di, 17.05. 0:30 8(4200m) 8(7800m) 8(9000m)
Di, 17.05. 0:00 8(4200m) 8(7200m)
Mo, 16.05. 23:30 1(3600m) 8(7200m) 8(8700m)
Ortszeit Luftdruck NN (hPa) Tendenz (hPa in 3 Std.)
Di, 17.05. 2:00 1021 + 0,4
Mo, 16.05. 20:00 1018 0,0
Mo, 16.05. 14:00 1018 + 0,6
Mo, 16.05. 8:00 1017 + 0,9
Mo, 16.05. 2:00 1017 0,0
So, 15.05. 20:00 1015 - 1,1
So, 15.05. 14:00 1017 - 1,3
So, 15.05. 8:00 1020 + 0,4
Ortszeit Luftdruck NN (hPa) Tendenz (hPa in 3 Std.)
Di, 17.05. 2:30 1021 + 0,4
Di, 17.05. 2:20 1021 keine Meldung
Di, 17.05. 2:10 1021 keine Meldung
Di, 17.05. 2:00 1021 + 0,4
Di, 17.05. 1:50 1021 keine Meldung
Di, 17.05. 1:40 1021 keine Meldung
Di, 17.05. 1:30 1021 + 0,3
Di, 17.05. 1:00 1021 + 0,4
Di, 17.05. 0:30 1021 + 0,9
Di, 17.05. 0:00 1021 + 1,3
Mo, 16.05. 23:30 1021 + 1,6
Ortszeit Schneehöhe (cm)
Di, 17.05. 2:00 0
Mo, 16.05. 20:00 0
Mo, 16.05. 14:00 0
Mo, 16.05. 8:00 0
Mo, 16.05. 2:00 0
So, 15.05. 20:00 0
So, 15.05. 14:00 0
So, 15.05. 8:00 0
Ortszeit Schneehöhe (cm)
Di, 17.05. 2:30 0
Di, 17.05. 2:20 0
Di, 17.05. 2:10 0
Di, 17.05. 2:00 0
Di, 17.05. 1:50 0
Di, 17.05. 1:40 0
Di, 17.05. 1:30 0
Di, 17.05. 1:00 0
Di, 17.05. 0:30 0
Di, 17.05. 0:00 0
Mo, 16.05. 23:30 0
Link zu dieser Seite / Seite empfehlen

Das Wetter in ...